sensor_id;sensor_type;location;lat;lon;timestamp;temperature;humidity
3348;DHT22;1687;49.540;8.574;2023-05-10T00:01:23;16.10;99.80
3348;DHT22;1687;49.540;8.574;2023-05-10T00:03:49;16.10;99.80
3348;DHT22;1687;49.540;8.574;2023-05-10T00:06:15;16.10;99.80
3348;DHT22;1687;49.540;8.574;2023-05-10T00:08:41;16.10;99.70
3348;DHT22;1687;49.540;8.574;2023-05-10T00:11:07;16.00;99.50
3348;DHT22;1687;49.540;8.574;2023-05-10T00:13:32;15.90;99.50
3348;DHT22;1687;49.540;8.574;2023-05-10T00:15:58;15.80;99.60
3348;DHT22;1687;49.540;8.574;2023-05-10T00:18:24;15.80;99.70
3348;DHT22;1687;49.540;8.574;2023-05-10T00:20:49;15.70;99.70
3348;DHT22;1687;49.540;8.574;2023-05-10T00:23:15;15.70;99.80
3348;DHT22;1687;49.540;8.574;2023-05-10T00:25:41;15.70;99.90
3348;DHT22;1687;49.540;8.574;2023-05-10T00:28:07;15.60;99.80
3348;DHT22;1687;49.540;8.574;2023-05-10T00:30:32;15.70;99.90
3348;DHT22;1687;49.540;8.574;2023-05-10T00:32:58;15.80;99.90
3348;DHT22;1687;49.540;8.574;2023-05-10T00:35:24;15.80;99.90
3348;DHT22;1687;49.540;8.574;2023-05-10T00:37:50;15.90;99.90
3348;DHT22;1687;49.540;8.574;2023-05-10T00:40:15;15.90;99.90
3348;DHT22;1687;49.540;8.574;2023-05-10T00:42:41;15.90;99.90
3348;DHT22;1687;49.540;8.574;2023-05-10T00:45:07;15.90;99.90
3348;DHT22;1687;49.540;8.574;2023-05-10T00:47:34;16.00;99.90
3348;DHT22;1687;49.540;8.574;2023-05-10T00:50:00;16.00;99.90
3348;DHT22;1687;49.540;8.574;2023-05-10T00:52:29;16.00;99.90
3348;DHT22;1687;49.540;8.574;2023-05-10T00:54:55;16.00;99.90
3348;DHT22;1687;49.540;8.574;2023-05-10T00:57:22;16.00;99.90
3348;DHT22;1687;49.540;8.574;2023-05-10T00:59:48;15.90;99.80
3348;DHT22;1687;49.540;8.574;2023-05-10T01:02:14;15.90;99.90
3348;DHT22;1687;49.540;8.574;2023-05-10T01:04:40;15.80;99.90
3348;DHT22;1687;49.540;8.574;2023-05-10T01:07:06;15.80;99.90
3348;DHT22;1687;49.540;8.574;2023-05-10T01:09:32;15.80;99.90
3348;DHT22;1687;49.540;8.574;2023-05-10T01:11:58;15.90;99.90
3348;DHT22;1687;49.540;8.574;2023-05-10T01:14:25;15.90;99.90
3348;DHT22;1687;49.540;8.574;2023-05-10T01:16:52;15.90;99.90
3348;DHT22;1687;49.540;8.574;2023-05-10T01:19:22;15.90;99.90
3348;DHT22;1687;49.540;8.574;2023-05-10T01:30:46;15.90;99.90
3348;DHT22;1687;49.540;8.574;2023-05-10T01:33:23;15.80;99.90
3348;DHT22;1687;49.540;8.574;2023-05-10T01:36:05;15.80;99.90
3348;DHT22;1687;49.540;8.574;2023-05-10T01:38:57;15.90;99.90
3348;DHT22;1687;49.540;8.574;2023-05-10T01:41:36;15.90;99.90
3348;DHT22;1687;49.540;8.574;2023-05-10T01:44:24;15.90;99.90
3348;DHT22;1687;49.540;8.574;2023-05-10T01:46:58;15.80;99.90
3348;DHT22;1687;49.540;8.574;2023-05-10T01:49:36;15.90;99.90
3348;DHT22;1687;49.540;8.574;2023-05-10T01:52:09;15.90;99.90
3348;DHT22;1687;49.540;8.574;2023-05-10T01:54:47;15.90;99.90
3348;DHT22;1687;49.540;8.574;2023-05-10T01:57:16;15.90;99.90
3348;DHT22;1687;49.540;8.574;2023-05-10T01:59:45;15.90;99.90
3348;DHT22;1687;49.540;8.574;2023-05-10T02:02:15;16.00;99.90
3348;DHT22;1687;49.540;8.574;2023-05-10T02:04:43;16.10;99.90
3348;DHT22;1687;49.540;8.574;2023-05-10T02:07:09;16.10;99.90
3348;DHT22;1687;49.540;8.574;2023-05-10T02:09:37;16.10;99.90
3348;DHT22;1687;49.540;8.574;2023-05-10T02:12:05;16.00;99.90
3348;DHT22;1687;49.540;8.574;2023-05-10T02:14:34;15.90;99.90
3348;DHT22;1687;49.540;8.574;2023-05-10T02:17:04;15.90;99.90
3348;DHT22;1687;49.540;8.574;2023-05-10T02:19:32;15.90;99.90
3348;DHT22;1687;49.540;8.574;2023-05-10T02:21:59;15.90;99.90
3348;DHT22;1687;49.540;8.574;2023-05-10T02:24:26;15.90;99.90
3348;DHT22;1687;49.540;8.574;2023-05-10T02:26:54;16.00;99.90
3348;DHT22;1687;49.540;8.574;2023-05-10T02:29:23;15.90;99.90
3348;DHT22;1687;49.540;8.574;2023-05-10T02:31:51;15.90;99.90
3348;DHT22;1687;49.540;8.574;2023-05-10T02:34:19;16.00;99.90
3348;DHT22;1687;49.540;8.574;2023-05-10T02:36:47;16.00;99.90
3348;DHT22;1687;49.540;8.574;2023-05-10T02:39:14;16.00;99.90
3348;DHT22;1687;49.540;8.574;2023-05-10T02:41:42;16.10;99.90
3348;DHT22;1687;49.540;8.574;2023-05-10T02:44:09;16.20;99.90
3348;DHT22;1687;49.540;8.574;2023-05-10T02:46:36;16.10;99.90
3348;DHT22;1687;49.540;8.574;2023-05-10T02:49:03;16.00;99.90
3348;DHT22;1687;49.540;8.574;2023-05-10T02:51:31;16.00;99.90
3348;DHT22;1687;49.540;8.574;2023-05-10T02:54:06;16.00;99.90
3348;DHT22;1687;49.540;8.574;2023-05-10T02:56:42;16.00;99.90
3348;DHT22;1687;49.540;8.574;2023-05-10T02:59:08;16.00;99.90
3348;DHT22;1687;49.540;8.574;2023-05-10T03:01:34;15.90;99.80
3348;DHT22;1687;49.540;8.574;2023-05-10T03:04:00;15.90;99.90
3348;DHT22;1687;49.540;8.574;2023-05-10T03:06:25;15.90;99.90
3348;DHT22;1687;49.540;8.574;2023-05-10T03:08:51;15.90;99.90
3348;DHT22;1687;49.540;8.574;2023-05-10T03:20:25;15.80;99.90
3348;DHT22;1687;49.540;8.574;2023-05-10T03:23:22;15.70;99.90
3348;DHT22;1687;49.540;8.574;2023-05-10T03:25:52;15.70;99.90
3348;DHT22;1687;49.540;8.574;2023-05-10T03:28:20;15.70;99.90
3348;DHT22;1687;49.540;8.574;2023-05-10T03:30:46;15.70;99.90
3348;DHT22;1687;49.540;8.574;2023-05-10T03:33:12;15.70;99.90
3348;DHT22;1687;49.540;8.574;2023-05-10T03:35:38;15.70;99.90
3348;DHT22;1687;49.540;8.574;2023-05-10T03:38:04;15.80;99.90
3348;DHT22;1687;49.540;8.574;2023-05-10T03:40:30;15.70;99.90
3348;DHT22;1687;49.540;8.574;2023-05-10T03:42:57;15.70;99.90
3348;DHT22;1687;49.540;8.574;2023-05-10T03:45:24;15.70;99.90
3348;DHT22;1687;49.540;8.574;2023-05-10T03:47:50;15.70;99.90
3348;DHT22;1687;49.540;8.574;2023-05-10T03:50:16;15.60;99.90
3348;DHT22;1687;49.540;8.574;2023-05-10T03:52:42;15.70;99.90
3348;DHT22;1687;49.540;8.574;2023-05-10T03:55:07;15.70;99.90
3348;DHT22;1687;49.540;8.574;2023-05-10T03:57:33;15.70;99.90
3348;DHT22;1687;49.540;8.574;2023-05-10T03:59:59;15.70;99.90
3348;DHT22;1687;49.540;8.574;2023-05-10T04:02:25;15.70;99.90
3348;DHT22;1687;49.540;8.574;2023-05-10T04:04:51;15.60;99.90
3348;DHT22;1687;49.540;8.574;2023-05-10T04:07:16;15.50;99.90
3348;DHT22;1687;49.540;8.574;2023-05-10T04:09:43;15.50;99.90
3348;DHT22;1687;49.540;8.574;2023-05-10T04:12:08;15.50;99.90
3348;DHT22;1687;49.540;8.574;2023-05-10T04:14:35;15.50;99.90
3348;DHT22;1687;49.540;8.574;2023-05-10T04:17:00;15.50;99.90
3348;DHT22;1687;49.540;8.574;2023-05-10T04:19:30;15.50;99.90
3348;DHT22;1687;49.540;8.574;2023-05-10T04:21:56;15.50;99.90
3348;DHT22;1687;49.540;8.574;2023-05-10T04:24:22;15.60;99.90
3348;DHT22;1687;49.540;8.574;2023-05-10T04:26:47;15.60;99.90
3348;DHT22;1687;49.540;8.574;2023-05-10T04:29:13;15.60;99.90
3348;DHT22;1687;49.540;8.574;2023-05-10T04:31:38;15.60;99.90
3348;DHT22;1687;49.540;8.574;2023-05-10T04:34:04;15.60;99.90
3348;DHT22;1687;49.540;8.574;2023-05-10T04:36:30;15.50;99.90
3348;DHT22;1687;49.540;8.574;2023-05-10T04:38:58;15.50;99.90
3348;DHT22;1687;49.540;8.574;2023-05-10T04:41:23;15.40;99.90
3348;DHT22;1687;49.540;8.574;2023-05-10T04:43:50;15.50;99.90
3348;DHT22;1687;49.540;8.574;2023-05-10T04:46:16;15.50;99.90
3348;DHT22;1687;49.540;8.574;2023-05-10T04:48:42;15.50;99.90
3348;DHT22;1687;49.540;8.574;2023-05-10T04:51:07;15.40;99.90
3348;DHT22;1687;49.540;8.574;2023-05-10T04:53:33;15.30;99.90
3348;DHT22;1687;49.540;8.574;2023-05-10T04:55:59;15.30;99.90
3348;DHT22;1687;49.540;8.574;2023-05-10T04:58:24;15.20;99.90
3348;DHT22;1687;49.540;8.574;2023-05-10T05:00:50;15.20;99.90
3348;DHT22;1687;49.540;8.574;2023-05-10T05:03:16;15.20;99.90
3348;DHT22;1687;49.540;8.574;2023-05-10T05:05:41;15.20;99.90
3348;DHT22;1687;49.540;8.574;2023-05-10T05:08:07;15.30;99.90
3348;DHT22;1687;49.540;8.574;2023-05-10T05:10:33;15.30;99.90
3348;DHT22;1687;49.540;8.574;2023-05-10T05:12:58;15.40;99.90
3348;DHT22;1687;49.540;8.574;2023-05-10T05:15:24;15.40;99.90
3348;DHT22;1687;49.540;8.574;2023-05-10T05:17:50;15.40;99.90
3348;DHT22;1687;49.540;8.574;2023-05-10T05:20:15;15.40;99.90
3348;DHT22;1687;49.540;8.574;2023-05-10T05:22:42;15.40;99.90
3348;DHT22;1687;49.540;8.574;2023-05-10T05:25:08;15.60;99.90
3348;DHT22;1687;49.540;8.574;2023-05-10T05:27:34;15.50;99.90
3348;DHT22;1687;49.540;8.574;2023-05-10T05:29:59;15.60;99.90
3348;DHT22;1687;49.540;8.574;2023-05-10T05:32:25;15.70;99.90
3348;DHT22;1687;49.540;8.574;2023-05-10T05:34:51;15.70;99.90
3348;DHT22;1687;49.540;8.574;2023-05-10T05:37:19;15.80;99.90
3348;DHT22;1687;49.540;8.574;2023-05-10T05:39:46;15.80;99.90
3348;DHT22;1687;49.540;8.574;2023-05-10T05:42:13;15.90;99.90
3348;DHT22;1687;49.540;8.574;2023-05-10T05:44:39;15.90;99.90
3348;DHT22;1687;49.540;8.574;2023-05-10T05:47:05;15.80;99.90
3348;DHT22;1687;49.540;8.574;2023-05-10T05:49:31;15.70;99.90
3348;DHT22;1687;49.540;8.574;2023-05-10T05:52:02;15.70;99.90
3348;DHT22;1687;49.540;8.574;2023-05-10T05:54:29;15.90;99.90
3348;DHT22;1687;49.540;8.574;2023-05-10T05:56:59;15.90;99.90
3348;DHT22;1687;49.540;8.574;2023-05-10T05:59:26;15.90;99.90
3348;DHT22;1687;49.540;8.574;2023-05-10T06:01:52;15.90;99.90
3348;DHT22;1687;49.540;8.574;2023-05-10T06:04:18;16.00;99.90
3348;DHT22;1687;49.540;8.574;2023-05-10T06:06:44;16.00;99.90
3348;DHT22;1687;49.540;8.574;2023-05-10T06:09:10;16.00;99.90
3348;DHT22;1687;49.540;8.574;2023-05-10T06:11:36;15.90;99.90
3348;DHT22;1687;49.540;8.574;2023-05-10T06:14:03;15.90;99.90
3348;DHT22;1687;49.540;8.574;2023-05-10T06:16:30;15.90;99.90
3348;DHT22;1687;49.540;8.574;2023-05-10T06:18:56;15.90;99.90
3348;DHT22;1687;49.540;8.574;2023-05-10T06:21:22;15.90;99.90
3348;DHT22;1687;49.540;8.574;2023-05-10T06:23:47;15.80;99.90
3348;DHT22;1687;49.540;8.574;2023-05-10T06:26:13;15.90;99.90
3348;DHT22;1687;49.540;8.574;2023-05-10T06:28:39;15.90;99.90
3348;DHT22;1687;49.540;8.574;2023-05-10T06:31:05;16.00;99.90
3348;DHT22;1687;49.540;8.574;2023-05-10T06:33:32;16.10;99.90
3348;DHT22;1687;49.540;8.574;2023-05-10T06:35:58;16.20;99.90
3348;DHT22;1687;49.540;8.574;2023-05-10T06:38:24;16.20;99.90
3348;DHT22;1687;49.540;8.574;2023-05-10T06:40:49;16.30;99.90
3348;DHT22;1687;49.540;8.574;2023-05-10T06:43:15;16.40;99.90
3348;DHT22;1687;49.540;8.574;2023-05-10T06:45:41;16.50;99.90
3348;DHT22;1687;49.540;8.574;2023-05-10T06:48:07;16.50;99.90
3348;DHT22;1687;49.540;8.574;2023-05-10T06:50:33;16.60;99.90
3348;DHT22;1687;49.540;8.574;2023-05-10T06:52:59;16.60;99.90
3348;DHT22;1687;49.540;8.574;2023-05-10T06:55:26;16.50;99.90
3348;DHT22;1687;49.540;8.574;2023-05-10T06:57:52;16.40;99.90
3348;DHT22;1687;49.540;8.574;2023-05-10T07:00:18;16.40;99.90
3348;DHT22;1687;49.540;8.574;2023-05-10T07:02:44;16.30;99.90
3348;DHT22;1687;49.540;8.574;2023-05-10T07:05:10;16.30;99.90
3348;DHT22;1687;49.540;8.574;2023-05-10T07:07:36;16.20;99.90
3348;DHT22;1687;49.540;8.574;2023-05-10T07:10:02;16.20;99.90
3348;DHT22;1687;49.540;8.574;2023-05-10T07:12:28;16.30;99.90
3348;DHT22;1687;49.540;8.574;2023-05-10T07:14:54;16.40;99.90
3348;DHT22;1687;49.540;8.574;2023-05-10T07:17:19;16.50;99.90
3348;DHT22;1687;49.540;8.574;2023-05-10T07:19:45;16.70;99.90
3348;DHT22;1687;49.540;8.574;2023-05-10T07:22:11;16.80;99.90
3348;DHT22;1687;49.540;8.574;2023-05-10T07:24:37;16.90;99.90
3348;DHT22;1687;49.540;8.574;2023-05-10T07:27:02;17.10;99.90
3348;DHT22;1687;49.540;8.574;2023-05-10T07:29:29;17.10;99.90
3348;DHT22;1687;49.540;8.574;2023-05-10T07:31:55;17.20;99.90
3348;DHT22;1687;49.540;8.574;2023-05-10T07:34:20;17.30;99.90
3348;DHT22;1687;49.540;8.574;2023-05-10T07:36:46;17.40;99.90
3348;DHT22;1687;49.540;8.574;2023-05-10T07:39:12;17.60;99.90
3348;DHT22;1687;49.540;8.574;2023-05-10T07:41:38;17.70;99.90
3348;DHT22;1687;49.540;8.574;2023-05-10T07:44:04;17.80;99.90
3348;DHT22;1687;49.540;8.574;2023-05-10T07:46:30;17.80;99.90
3348;DHT22;1687;49.540;8.574;2023-05-10T07:48:56;18.00;99.90
3348;DHT22;1687;49.540;8.574;2023-05-10T07:51:22;18.00;99.90
3348;DHT22;1687;49.540;8.574;2023-05-10T07:53:47;18.10;99.90
3348;DHT22;1687;49.540;8.574;2023-05-10T07:56:24;18.20;99.90
3348;DHT22;1687;49.540;8.574;2023-05-10T07:58:56;18.30;99.90
3348;DHT22;1687;49.540;8.574;2023-05-10T08:01:22;18.20;99.90
3348;DHT22;1687;49.540;8.574;2023-05-10T08:03:48;18.00;99.90
3348;DHT22;1687;49.540;8.574;2023-05-10T08:06:18;18.00;99.90
3348;DHT22;1687;49.540;8.574;2023-05-10T08:08:46;18.00;99.90
3348;DHT22;1687;49.540;8.574;2023-05-10T08:11:18;18.00;99.80
3348;DHT22;1687;49.540;8.574;2023-05-10T08:13:48;17.90;99.80
3348;DHT22;1687;49.540;8.574;2023-05-10T08:16:15;18.00;99.70
3348;DHT22;1687;49.540;8.574;2023-05-10T08:18:42;18.00;99.50
3348;DHT22;1687;49.540;8.574;2023-05-10T08:21:08;18.10;99.70
3348;DHT22;1687;49.540;8.574;2023-05-10T08:23:36;18.10;99.50
3348;DHT22;1687;49.540;8.574;2023-05-10T08:26:02;18.10;99.20
3348;DHT22;1687;49.540;8.574;2023-05-10T08:28:28;18.00;99.10
3348;DHT22;1687;49.540;8.574;2023-05-10T08:30:54;18.00;99.10
3348;DHT22;1687;49.540;8.574;2023-05-10T08:33:20;18.00;98.90
3348;DHT22;1687;49.540;8.574;2023-05-10T08:35:45;18.10;98.90
3348;DHT22;1687;49.540;8.574;2023-05-10T08:38:11;18.20;99.00
3348;DHT22;1687;49.540;8.574;2023-05-10T08:40:39;18.40;98.70
3348;DHT22;1687;49.540;8.574;2023-05-10T08:43:12;18.60;98.70
3348;DHT22;1687;49.540;8.574;2023-05-10T08:45:42;18.70;98.50
3348;DHT22;1687;49.540;8.574;2023-05-10T08:48:11;18.80;98.20
3348;DHT22;1687;49.540;8.574;2023-05-10T08:50:38;18.80;98.00
3348;DHT22;1687;49.540;8.574;2023-05-10T08:53:09;18.90;98.20
3348;DHT22;1687;49.540;8.574;2023-05-10T08:55:36;19.00;98.30
3348;DHT22;1687;49.540;8.574;2023-05-10T08:58:04;19.00;97.90
3348;DHT22;1687;49.540;8.574;2023-05-10T09:00:31;19.00;97.80
3348;DHT22;1687;49.540;8.574;2023-05-10T09:02:58;19.00;97.60
3348;DHT22;1687;49.540;8.574;2023-05-10T09:05:25;19.10;97.60
3348;DHT22;1687;49.540;8.574;2023-05-10T09:07:50;19.10;97.40
3348;DHT22;1687;49.540;8.574;2023-05-10T09:10:16;18.90;96.70
3348;DHT22;1687;49.540;8.574;2023-05-10T09:12:43;18.60;96.30
3348;DHT22;1687;49.540;8.574;2023-05-10T09:15:10;18.40;96.50
3348;DHT22;1687;49.540;8.574;2023-05-10T09:17:38;18.20;96.40
3348;DHT22;1687;49.540;8.574;2023-05-10T09:20:04;18.10;96.20
3348;DHT22;1687;49.540;8.574;2023-05-10T09:22:31;18.00;96.20
3348;DHT22;1687;49.540;8.574;2023-05-10T09:25:07;17.80;95.80
3348;DHT22;1687;49.540;8.574;2023-05-10T09:27:34;17.60;95.70
3348;DHT22;1687;49.540;8.574;2023-05-10T09:30:01;17.50;96.20
3348;DHT22;1687;49.540;8.574;2023-05-10T09:32:44;17.50;96.10
3348;DHT22;1687;49.540;8.574;2023-05-10T09:35:14;17.60;96.60
3348;DHT22;1687;49.540;8.574;2023-05-10T09:37:43;17.80;96.50
3348;DHT22;1687;49.540;8.574;2023-05-10T09:40:12;18.00;96.40
3348;DHT22;1687;49.540;8.574;2023-05-10T09:42:59;18.10;96.00
3348;DHT22;1687;49.540;8.574;2023-05-10T09:45:27;18.20;96.10
3348;DHT22;1687;49.540;8.574;2023-05-10T09:47:55;18.40;96.30
3348;DHT22;1687;49.540;8.574;2023-05-10T09:50:22;18.50;96.20
3348;DHT22;1687;49.540;8.574;2023-05-10T09:52:52;18.60;96.00
3348;DHT22;1687;49.540;8.574;2023-05-10T09:55:20;18.60;95.80
3348;DHT22;1687;49.540;8.574;2023-05-10T09:57:48;18.60;95.50
3348;DHT22;1687;49.540;8.574;2023-05-10T10:00:18;18.60;95.80
3348;DHT22;1687;49.540;8.574;2023-05-10T10:02:57;18.60;95.40
3348;DHT22;1687;49.540;8.574;2023-05-10T10:05:28;18.50;95.10
3348;DHT22;1687;49.540;8.574;2023-05-10T10:07:59;18.30;94.90
3348;DHT22;1687;49.540;8.574;2023-05-10T10:10:26;18.40;95.30
3348;DHT22;1687;49.540;8.574;2023-05-10T10:12:53;18.30;94.90
3348;DHT22;1687;49.540;8.574;2023-05-10T10:15:23;18.30;94.90
3348;DHT22;1687;49.540;8.574;2023-05-10T10:17:50;18.10;94.50
3348;DHT22;1687;49.540;8.574;2023-05-10T10:20:18;18.00;94.40
3348;DHT22;1687;49.540;8.574;2023-05-10T10:22:45;17.90;94.00
3348;DHT22;1687;49.540;8.574;2023-05-10T10:25:12;17.80;94.20
3348;DHT22;1687;49.540;8.574;2023-05-10T10:27:47;17.80;94.20
3348;DHT22;1687;49.540;8.574;2023-05-10T10:30:35;17.70;93.70
3348;DHT22;1687;49.540;8.574;2023-05-10T10:33:33;17.60;94.00
3348;DHT22;1687;49.540;8.574;2023-05-10T10:36:05;17.60;93.90
3348;DHT22;1687;49.540;8.574;2023-05-10T10:41:34;17.90;93.90
3348;DHT22;1687;49.540;8.574;2023-05-10T10:52:21;18.40;92.20
3348;DHT22;1687;49.540;8.574;2023-05-10T10:55:03;18.40;92.20
3348;DHT22;1687;49.540;8.574;2023-05-10T10:57:33;18.40;91.60
3348;DHT22;1687;49.540;8.574;2023-05-10T11:03:13;18.90;91.20
3348;DHT22;1687;49.540;8.574;2023-05-10T11:05:50;18.90;90.50
3348;DHT22;1687;49.540;8.574;2023-05-10T11:19:06;19.50;88.80
3348;DHT22;1687;49.540;8.574;2023-05-10T11:21:36;19.70;87.40
3348;DHT22;1687;49.540;8.574;2023-05-10T11:24:18;19.80;86.80
3348;DHT22;1687;49.540;8.574;2023-05-10T11:26:46;19.80;85.50
3348;DHT22;1687;49.540;8.574;2023-05-10T11:29:13;19.90;85.80
3348;DHT22;1687;49.540;8.574;2023-05-10T11:31:43;20.00;85.80
3348;DHT22;1687;49.540;8.574;2023-05-10T11:34:10;20.10;84.40
3348;DHT22;1687;49.540;8.574;2023-05-10T11:36:36;20.00;84.10
3348;DHT22;1687;49.540;8.574;2023-05-10T11:39:03;20.10;83.70
3348;DHT22;1687;49.540;8.574;2023-05-10T11:41:30;20.00;83.20
3348;DHT22;1687;49.540;8.574;2023-05-10T11:43:57;20.10;83.00
3348;DHT22;1687;49.540;8.574;2023-05-10T11:46:25;20.20;82.60
3348;DHT22;1687;49.540;8.574;2023-05-10T11:48:57;20.30;83.00
3348;DHT22;1687;49.540;8.574;2023-05-10T11:51:26;20.50;81.80
3348;DHT22;1687;49.540;8.574;2023-05-10T11:53:53;20.50;80.90
3348;DHT22;1687;49.540;8.574;2023-05-10T11:56:20;20.30;80.10
3348;DHT22;1687;49.540;8.574;2023-05-10T11:58:53;20.40;79.70
3348;DHT22;1687;49.540;8.574;2023-05-10T12:01:20;20.60;79.80
3348;DHT22;1687;49.540;8.574;2023-05-10T12:03:47;20.60;78.10
3348;DHT22;1687;49.540;8.574;2023-05-10T12:06:13;20.60;77.70
3348;DHT22;1687;49.540;8.574;2023-05-10T12:08:44;20.70;77.20
3348;DHT22;1687;49.540;8.574;2023-05-10T12:11:12;20.70;76.30
3348;DHT22;1687;49.540;8.574;2023-05-10T12:13:43;20.60;75.90
3348;DHT22;1687;49.540;8.574;2023-05-10T12:16:30;20.70;76.20
3348;DHT22;1687;49.540;8.574;2023-05-10T12:18:58;20.80;75.60
3348;DHT22;1687;49.540;8.574;2023-05-10T12:21:26;20.70;74.80
3348;DHT22;1687;49.540;8.574;2023-05-10T12:23:56;20.70;75.00
3348;DHT22;1687;49.540;8.574;2023-05-10T12:26:25;20.90;75.10
3348;DHT22;1687;49.540;8.574;2023-05-10T12:28:53;20.90;74.80
3348;DHT22;1687;49.540;8.574;2023-05-10T12:31:19;20.90;74.20
3348;DHT22;1687;49.540;8.574;2023-05-10T12:33:45;20.80;73.90
3348;DHT22;1687;49.540;8.574;2023-05-10T12:36:13;20.70;73.80
3348;DHT22;1687;49.540;8.574;2023-05-10T12:38:41;20.70;73.50
3348;DHT22;1687;49.540;8.574;2023-05-10T12:41:16;20.50;73.10
3348;DHT22;1687;49.540;8.574;2023-05-10T12:43:43;20.40;72.80
3348;DHT22;1687;49.540;8.574;2023-05-10T12:46:11;20.40;73.10
3348;DHT22;1687;49.540;8.574;2023-05-10T12:48:39;20.50;73.10
3348;DHT22;1687;49.540;8.574;2023-05-10T12:51:06;20.70;72.90
3348;DHT22;1687;49.540;8.574;2023-05-10T12:53:38;20.70;72.70
3348;DHT22;1687;49.540;8.574;2023-05-10T12:56:04;20.80;72.90
3348;DHT22;1687;49.540;8.574;2023-05-10T12:58:30;21.10;73.30
3348;DHT22;1687;49.540;8.574;2023-05-10T13:00:57;21.40;72.60
3348;DHT22;1687;49.540;8.574;2023-05-10T13:03:23;21.60;72.00
3348;DHT22;1687;49.540;8.574;2023-05-10T13:05:48;21.80;72.40
3348;DHT22;1687;49.540;8.574;2023-05-10T13:08:14;21.70;70.80
3348;DHT22;1687;49.540;8.574;2023-05-10T13:10:40;21.70;70.70
3348;DHT22;1687;49.540;8.574;2023-05-10T13:13:06;21.70;70.70
3348;DHT22;1687;49.540;8.574;2023-05-10T13:15:32;21.60;69.20
3348;DHT22;1687;49.540;8.574;2023-05-10T13:17:58;21.60;69.60
3348;DHT22;1687;49.540;8.574;2023-05-10T13:20:24;21.80;69.40
3348;DHT22;1687;49.540;8.574;2023-05-10T13:22:50;21.70;69.30
3348;DHT22;1687;49.540;8.574;2023-05-10T13:25:16;21.90;69.20
3348;DHT22;1687;49.540;8.574;2023-05-10T13:27:42;22.00;69.30
3348;DHT22;1687;49.540;8.574;2023-05-10T13:30:08;22.10;69.20
3348;DHT22;1687;49.540;8.574;2023-05-10T13:32:35;22.20;69.10
3348;DHT22;1687;49.540;8.574;2023-05-10T13:35:01;22.30;69.30
3348;DHT22;1687;49.540;8.574;2023-05-10T13:37:28;22.20;68.60
3348;DHT22;1687;49.540;8.574;2023-05-10T13:39:54;22.30;68.80
3348;DHT22;1687;49.540;8.574;2023-05-10T13:42:22;22.50;68.80
3348;DHT22;1687;49.540;8.574;2023-05-10T13:44:49;22.60;68.00
3348;DHT22;1687;49.540;8.574;2023-05-10T13:47:15;22.60;67.50
3348;DHT22;1687;49.540;8.574;2023-05-10T13:49:41;22.70;67.70
3348;DHT22;1687;49.540;8.574;2023-05-10T13:52:06;23.30;68.10
3348;DHT22;1687;49.540;8.574;2023-05-10T13:54:33;23.80;67.90
3348;DHT22;1687;49.540;8.574;2023-05-10T13:56:59;24.10;66.60
3348;DHT22;1687;49.540;8.574;2023-05-10T13:59:25;24.10;66.20
3348;DHT22;1687;49.540;8.574;2023-05-10T14:01:50;24.20;65.30
3348;DHT22;1687;49.540;8.574;2023-05-10T14:04:16;24.10;65.20
3348;DHT22;1687;49.540;8.574;2023-05-10T14:06:42;24.80;65.80
3348;DHT22;1687;49.540;8.574;2023-05-10T14:09:08;24.80;63.80
3348;DHT22;1687;49.540;8.574;2023-05-10T14:11:33;24.60;64.30
3348;DHT22;1687;49.540;8.574;2023-05-10T14:13:59;24.30;62.50
3348;DHT22;1687;49.540;8.574;2023-05-10T14:16:25;24.20;63.60
3348;DHT22;1687;49.540;8.574;2023-05-10T14:18:51;24.40;63.50
3348;DHT22;1687;49.540;8.574;2023-05-10T14:21:17;24.50;62.90
3348;DHT22;1687;49.540;8.574;2023-05-10T14:23:42;24.60;62.80
3348;DHT22;1687;49.540;8.574;2023-05-10T14:26:08;24.60;61.30
3348;DHT22;1687;49.540;8.574;2023-05-10T14:28:34;24.60;61.90
3348;DHT22;1687;49.540;8.574;2023-05-10T14:30:59;24.70;61.20
3348;DHT22;1687;49.540;8.574;2023-05-10T14:33:25;24.90;61.60
3348;DHT22;1687;49.540;8.574;2023-05-10T14:35:51;25.10;61.00
3348;DHT22;1687;49.540;8.574;2023-05-10T14:38:17;25.50;60.40
3348;DHT22;1687;49.540;8.574;2023-05-10T14:40:43;25.60;60.00
3348;DHT22;1687;49.540;8.574;2023-05-10T14:43:08;25.80;60.10
3348;DHT22;1687;49.540;8.574;2023-05-10T14:45:35;25.50;59.00
3348;DHT22;1687;49.540;8.574;2023-05-10T14:48:00;25.40;58.90
3348;DHT22;1687;49.540;8.574;2023-05-10T14:50:30;25.10;58.30
3348;DHT22;1687;49.540;8.574;2023-05-10T14:52:56;25.30;58.60
3348;DHT22;1687;49.540;8.574;2023-05-10T14:55:23;25.40;58.20
3348;DHT22;1687;49.540;8.574;2023-05-10T14:57:48;25.60;57.90
3348;DHT22;1687;49.540;8.574;2023-05-10T15:00:16;25.50;56.90
3348;DHT22;1687;49.540;8.574;2023-05-10T15:02:42;25.10;56.20
3348;DHT22;1687;49.540;8.574;2023-05-10T15:05:08;24.70;56.50
3348;DHT22;1687;49.540;8.574;2023-05-10T15:07:33;24.60;56.50
3348;DHT22;1687;49.540;8.574;2023-05-10T15:09:59;24.30;55.80
3348;DHT22;1687;49.540;8.574;2023-05-10T15:12:25;24.00;55.60
3348;DHT22;1687;49.540;8.574;2023-05-10T15:14:51;23.80;55.80
3348;DHT22;1687;49.540;8.574;2023-05-10T15:17:16;23.90;56.20
3348;DHT22;1687;49.540;8.574;2023-05-10T15:19:42;24.10;56.50
3348;DHT22;1687;49.540;8.574;2023-05-10T15:22:08;24.20;55.70
3348;DHT22;1687;49.540;8.574;2023-05-10T15:24:34;24.10;55.60
3348;DHT22;1687;49.540;8.574;2023-05-10T15:26:59;24.30;56.10
3348;DHT22;1687;49.540;8.574;2023-05-10T15:29:26;24.40;55.50
3348;DHT22;1687;49.540;8.574;2023-05-10T15:31:52;23.90;54.50
3348;DHT22;1687;49.540;8.574;2023-05-10T15:34:18;23.60;55.20
3348;DHT22;1687;49.540;8.574;2023-05-10T15:36:44;23.80;55.70
3348;DHT22;1687;49.540;8.574;2023-05-10T15:39:11;23.80;55.50
3348;DHT22;1687;49.540;8.574;2023-05-10T15:41:37;23.70;54.60
3348;DHT22;1687;49.540;8.574;2023-05-10T15:44:03;23.40;54.90
3348;DHT22;1687;49.540;8.574;2023-05-10T15:46:29;23.40;54.80
3348;DHT22;1687;49.540;8.574;2023-05-10T15:48:57;23.50;54.80
3348;DHT22;1687;49.540;8.574;2023-05-10T15:51:23;23.80;55.10
3348;DHT22;1687;49.540;8.574;2023-05-10T15:53:49;24.40;55.40
3348;DHT22;1687;49.540;8.574;2023-05-10T15:56:15;24.80;55.60
3348;DHT22;1687;49.540;8.574;2023-05-10T15:58:40;25.00;55.10
3348;DHT22;1687;49.540;8.574;2023-05-10T16:01:08;24.80;54.40
3348;DHT22;1687;49.540;8.574;2023-05-10T16:03:34;24.50;54.40
3348;DHT22;1687;49.540;8.574;2023-05-10T16:06:00;24.40;54.40
3348;DHT22;1687;49.540;8.574;2023-05-10T16:08:27;24.30;54.70
3348;DHT22;1687;49.540;8.574;2023-05-10T16:10:55;24.10;54.20
3348;DHT22;1687;49.540;8.574;2023-05-10T16:13:21;24.00;54.20
3348;DHT22;1687;49.540;8.574;2023-05-10T16:15:47;23.80;54.10
3348;DHT22;1687;49.540;8.574;2023-05-10T16:18:13;23.40;53.40
3348;DHT22;1687;49.540;8.574;2023-05-10T16:20:39;23.20;53.40
3348;DHT22;1687;49.540;8.574;2023-05-10T16:23:06;22.90;53.40
3348;DHT22;1687;49.540;8.574;2023-05-10T16:25:32;22.40;53.10
3348;DHT22;1687;49.540;8.574;2023-05-10T16:27:58;22.20;53.50
3348;DHT22;1687;49.540;8.574;2023-05-10T16:30:24;22.10;53.50
3348;DHT22;1687;49.540;8.574;2023-05-10T16:32:52;22.10;53.60
3348;DHT22;1687;49.540;8.574;2023-05-10T16:35:18;21.90;53.50
3348;DHT22;1687;49.540;8.574;2023-05-10T16:37:44;21.80;53.60
3348;DHT22;1687;49.540;8.574;2023-05-10T16:40:09;21.70;53.50
3348;DHT22;1687;49.540;8.574;2023-05-10T16:42:35;21.60;53.40
3348;DHT22;1687;49.540;8.574;2023-05-10T16:45:02;21.60;54.40
3348;DHT22;1687;49.540;8.574;2023-05-10T16:47:32;21.80;54.00